Time;durP1;ratioP1;P1;durP2;ratioP2;P2;SDS_P1;SDS_P2;PMS_P1;PMS_P2;Temp;Humidity;BMP_temperature;BMP_pressure;BME280_temperature;BME280_humidity;BME280_pressure;Samples;Min_cycle;Max_cycle;Signal;HPM_P1;HPM_P2
2023/04/20 00:00:21;;;;;;;5.90;3.38;;;;;;;;;;5061912;28;20049;-61
2023/04/20 00:02:47;;;;;;;6.68;4.00;;;;;;;;;;5063222;28;20899;-62
2023/04/20 00:05:14;;;;;;;4.15;3.28;;;;;;;;;;5067605;28;20684;-61
2023/04/20 00:07:41;;;;;;;6.15;3.20;;;;;;;;;;5073664;28;20073;-61
2023/04/20 00:10:08;;;;;;;4.07;3.13;;;;;;;;;;5061993;28;20059;-61
2023/04/20 00:12:34;;;;;;;4.80;2.90;;;;;;;;;;5042731;28;20180;-62
2023/04/20 00:15:01;;;;;;;4.03;3.03;;;;;;;;;;5059499;28;20084;-61
2023/04/20 00:17:27;;;;;;;2.72;2.15;;;;;;;;;;5062537;28;20938;-61
2023/04/20 00:19:54;;;;;;;3.70;2.58;;;;;;;;;;5061825;28;20135;-61
2023/04/20 00:22:20;;;;;;;8.25;1.95;;;;;;;;;;5063100;28;20057;-61
2023/04/20 00:24:47;;;;;;;3.88;2.35;;;;;;;;;;5061531;28;20588;-61
2023/04/20 00:27:13;;;;;;;3.83;2.08;;;;;;;;;;5060720;28;20515;-61
2023/04/20 00:29:39;;;;;;;5.68;2.28;;;;;;;;;;5057803;28;20056;-61
2023/04/20 00:32:06;;;;;;;2.90;2.30;;;;;;;;;;5062289;28;20200;-61
2023/04/20 00:34:32;;;;;;;8.25;2.80;;;;;;;;;;5070623;28;20249;-61
2023/04/20 00:36:59;;;;;;;3.00;2.17;;;;;;;;;;5056842;28;20060;-61
2023/04/20 00:39:26;;;;;;;3.10;2.03;;;;;;;;;;5055365;28;20058;-61
2023/04/20 00:41:53;;;;;;;7.00;2.80;;;;;;;;;;5060939;28;20053;-62
2023/04/20 00:44:19;;;;;;;3.42;2.42;;;;;;;;;;5063664;28;20357;-61
2023/04/20 00:46:46;;;;;;;3.97;2.50;;;;;;;;;;5062585;28;20136;-62
2023/04/20 00:49:12;;;;;;;5.13;2.50;;;;;;;;;;5058582;28;20056;-61
2023/04/20 00:51:39;;;;;;;2.30;2.08;;;;;;;;;;5046086;28;20064;-61
2023/04/20 00:54:05;;;;;;;5.88;2.42;;;;;;;;;;5063075;28;20061;-61
2023/04/20 00:56:31;;;;;;;4.50;2.25;;;;;;;;;;5061138;28;20059;-61
2023/04/20 00:58:58;;;;;;;4.60;2.47;;;;;;;;;;5062265;28;20061;-59
2023/04/20 01:01:24;;;;;;;4.68;2.55;;;;;;;;;;5051205;28;20060;-61
2023/04/20 01:03:51;;;;;;;5.45;2.72;;;;;;;;;;5064035;28;20053;-61
2023/04/20 01:06:17;;;;;;;3.83;2.50;;;;;;;;;;5062329;28;20053;-61
2023/04/20 01:08:45;;;;;;;5.88;2.15;;;;;;;;;;5063716;28;20048;-62
2023/04/20 01:11:11;;;;;;;6.68;2.45;;;;;;;;;;5061295;28;20048;-61
2023/04/20 01:13:38;;;;;;;3.25;2.40;;;;;;;;;;5080152;28;20049;-62
2023/04/20 01:16:04;;;;;;;5.68;2.70;;;;;;;;;;5054651;28;20056;-61
2023/04/20 01:18:40;;;;;;;4.45;2.22;;;;;;;;;;5061400;28;20099;-62
2023/04/20 01:21:06;;;;;;;;;;;;;;;;;;5061619;28;20056;-61
2023/04/20 01:23:33;;;;;;;2.42;2.17;;;;;;;;;;5077036;28;45581;-61
2023/04/20 01:26:00;;;;;;;6.93;2.40;;;;;;;;;;5063027;28;20057;-60
2023/04/20 01:28:26;;;;;;;3.75;2.90;;;;;;;;;;5061834;28;20057;-62
2023/04/20 01:30:53;;;;;;;3.75;2.22;;;;;;;;;;5056990;28;20590;-62
2023/04/20 01:33:19;;;;;;;3.70;2.58;;;;;;;;;;5055183;28;20061;-62
2023/04/20 01:35:47;;;;;;;4.18;2.88;;;;;;;;;;5061538;28;20055;-61
2023/04/20 01:38:17;;;;;;;3.63;2.17;;;;;;;;;;5062524;28;20443;-61
2023/04/20 01:40:43;;;;;;;5.03;2.83;;;;;;;;;;5060675;28;20049;-62
2023/04/20 01:43:10;;;;;;;4.10;2.47;;;;;;;;;;5050836;28;20055;-62
2023/04/20 01:45:36;;;;;;;8.55;2.38;;;;;;;;;;5058896;28;20049;-61
2023/04/20 01:48:03;;;;;;;4.82;2.72;;;;;;;;;;5060634;28;20049;-61
2023/04/20 01:50:29;;;;;;;4.25;2.90;;;;;;;;;;5074377;28;20059;-62
2023/04/20 01:52:55;;;;;;;4.00;2.75;;;;;;;;;;5062399;28;20611;-62
2023/04/20 01:55:22;;;;;;;4.47;2.70;;;;;;;;;;5061411;28;20059;-61
2023/04/20 01:57:48;;;;;;;11.68;3.05;;;;;;;;;;5059570;28;20115;-62
2023/04/20 02:00:15;;;;;;;7.57;3.22;;;;;;;;;;5057832;28;20390;-62
2023/04/20 02:02:41;;;;;;;4.95;2.95;;;;;;;;;;5056891;28;20407;-61
2023/04/20 02:05:08;;;;;;;3.53;2.33;;;;;;;;;;5055186;28;20055;-62
2023/04/20 02:07:34;;;;;;;5.55;2.75;;;;;;;;;;5061464;28;20057;-62
2023/04/20 02:10:01;;;;;;;4.97;3.03;;;;;;;;;;5061415;28;20522;-62
2023/04/20 02:12:27;;;;;;;6.55;3.20;;;;;;;;;;5061612;28;20107;-62
2023/04/20 02:14:54;;;;;;;6.60;3.58;;;;;;;;;;5061838;28;20123;-62
2023/04/20 02:17:20;;;;;;;5.45;2.92;;;;;;;;;;5065751;28;20136;-61
2023/04/20 02:19:47;;;;;;;8.00;2.85;;;;;;;;;;5051344;28;20496;-62
2023/04/20 02:22:13;;;;;;;5.53;2.70;;;;;;;;;;5074931;28;20384;-62
2023/04/20 02:24:40;;;;;;;5.10;2.70;;;;;;;;;;5071773;28;20063;-62
2023/04/20 02:27:06;;;;;;;7.30;3.13;;;;;;;;;;5071506;28;20107;-62
2023/04/20 02:29:32;;;;;;;6.00;2.70;;;;;;;;;;5064607;28;20096;-63
2023/04/20 02:31:59;;;;;;;4.22;2.70;;;;;;;;;;5072474;28;20080;-59
2023/04/20 02:34:25;;;;;;;2.97;2.28;;;;;;;;;;5072030;28;20550;-61
2023/04/20 02:36:52;;;;;;;4.78;2.78;;;;;;;;;;5062919;28;20088;-61
2023/04/20 02:39:18;;;;;;;9.50;3.35;;;;;;;;;;5063723;28;20154;-62
2023/04/20 02:41:45;;;;;;;5.35;2.67;;;;;;;;;;5055060;28;20486;-61
2023/04/20 02:44:11;;;;;;;8.10;3.25;;;;;;;;;;5064627;28;20495;-61
2023/04/20 02:46:38;;;;;;;5.05;2.83;;;;;;;;;;5071432;28;20049;-61
2023/04/20 02:49:04;;;;;;;3.80;2.35;;;;;;;;;;5064187;28;20057;-61
2023/04/20 02:51:31;;;;;;;8.73;2.55;;;;;;;;;;5063444;28;20049;-61
2023/04/20 02:53:57;;;;;;;3.15;2.03;;;;;;;;;;5064661;28;20516;-61
2023/04/20 02:56:25;;;;;;;6.28;2.47;;;;;;;;;;5064029;28;20555;-62
2023/04/20 02:58:51;;;;;;;4.82;2.33;;;;;;;;;;5053895;28;20085;-61
2023/04/20 03:01:18;;;;;;;4.35;2.58;;;;;;;;;;5064203;28;20452;-61
2023/04/20 03:03:44;;;;;;;5.45;2.60;;;;;;;;;;5064102;28;20135;-62
2023/04/20 03:06:11;;;;;;;5.22;2.53;;;;;;;;;;5061298;28;20053;-62
2023/04/20 03:08:37;;;;;;;4.53;2.78;;;;;;;;;;5064946;28;20148;-61
2023/04/20 03:11:03;;;;;;;6.40;2.38;;;;;;;;;;5052017;28;20542;-62
2023/04/20 03:13:29;;;;;;;5.10;2.70;;;;;;;;;;5074450;28;20067;-61
2023/04/20 03:15:56;;;;;;;6.55;2.30;;;;;;;;;;5070462;28;20084;-62
2023/04/20 03:18:23;;;;;;;5.03;2.28;;;;;;;;;;5063841;28;20052;-62
2023/04/20 03:20:49;;;;;;;5.82;2.67;;;;;;;;;;5053673;28;20136;-61
2023/04/20 03:23:15;;;;;;;3.35;2.67;;;;;;;;;;5079332;28;20052;-61
2023/04/20 03:25:42;;;;;;;3.47;1.92;;;;;;;;;;5066798;28;20593;-61
2023/04/20 03:28:09;;;;;;;5.20;2.45;;;;;;;;;;5062766;28;20139;-62
2023/04/20 03:30:35;;;;;;;6.35;2.80;;;;;;;;;;5056226;28;20061;-61
2023/04/20 03:33:01;;;;;;;4.20;2.83;;;;;;;;;;5044015;28;20067;-62
2023/04/20 03:35:28;;;;;;;7.47;2.53;;;;;;;;;;5061781;28;20061;-61
2023/04/20 03:37:55;;;;;;;5.38;2.50;;;;;;;;;;5063761;28;20049;-62
2023/04/20 03:40:21;;;;;;;4.65;2.17;;;;;;;;;;5063979;28;20370;-61
2023/04/20 03:42:47;;;;;;;4.68;2.22;;;;;;;;;;5063060;28;20172;-62
2023/04/20 03:45:15;;;;;;;3.92;2.33;;;;;;;;;;5054372;28;20041;-61
2023/04/20 03:47:41;;;;;;;4.57;2.42;;;;;;;;;;5068351;28;20056;-62
2023/04/20 03:50:08;;;;;;;6.75;2.55;;;;;;;;;;5070684;28;20495;-62
2023/04/20 03:52:35;;;;;;;4.65;2.38;;;;;;;;;;5080998;28;20136;-61
2023/04/20 03:55:01;;;;;;;3.15;2.10;;;;;;;;;;5056091;28;20097;-61
2023/04/20 03:57:27;;;;;;;6.43;2.20;;;;;;;;;;5057664;28;20446;-62
2023/04/20 03:59:54;;;;;;;7.10;2.50;;;;;;;;;;5063409;28;20135;-61
2023/04/20 04:02:21;;;;;;;5.97;2.20;;;;;;;;;;5079082;28;20049;-61
2023/04/20 04:04:48;;;;;;;3.90;2.35;;;;;;;;;;5064030;28;20080;-61
2023/04/20 04:07:14;;;;;;;4.40;2.38;;;;;;;;;;5062801;28;20052;-61
2023/04/20 04:09:41;;;;;;;6.28;2.47;;;;;;;;;;5063430;28;20061;-61
2023/04/20 04:12:07;;;;;;;5.78;2.15;;;;;;;;;;5048630;28;20193;-62
2023/04/20 04:14:34;;;;;;;5.88;2.58;;;;;;;;;;5063520;28;20620;-61
2023/04/20 04:17:00;;;;;;;3.50;2.30;;;;;;;;;;5062821;28;20439;-60
2023/04/20 04:19:27;;;;;;;3.67;2.72;;;;;;;;;;5064307;28;20049;-62
2023/04/20 04:21:53;;;;;;;2.63;2.05;;;;;;;;;;5075353;28;20048;-62
2023/04/20 04:24:20;;;;;;;6.43;3.25;;;;;;;;;;5062828;28;20503;-61
2023/04/20 04:26:47;;;;;;;8.60;4.00;;;;;;;;;;5062881;28;20057;-62
2023/04/20 04:29:14;;;;;;;7.75;4.30;;;;;;;;;;5068007;28;20056;-61
2023/04/20 04:31:41;;;;;;;6.40;3.60;;;;;;;;;;5072422;28;20292;-61
2023/04/20 04:34:07;;;;;;;5.78;2.60;;;;;;;;;;5065111;28;20049;-62
2023/04/20 04:36:35;;;;;;;3.17;2.40;;;;;;;;;;5083329;28;20091;-61
2023/04/20 04:39:02;;;;;;;4.03;3.08;;;;;;;;;;5061169;28;20431;-61
2023/04/20 04:41:28;;;;;;;4.03;2.83;;;;;;;;;;5054665;28;20061;-61
2023/04/20 04:43:55;;;;;;;5.53;2.67;;;;;;;;;;5062790;28;20145;-65
2023/04/20 04:46:24;;;;;;;16.33;2.58;;;;;;;;;;5079024;28;20059;-62
2023/04/20 04:48:50;;;;;;;5.20;2.17;;;;;;;;;;5062731;28;20056;-61
2023/04/20 04:51:16;;;;;;;4.55;2.28;;;;;;;;;;5056908;28;20523;-62
2023/04/20 04:53:45;;;;;;;4.10;2.50;;;;;;;;;;5068331;28;20502;-62
2023/04/20 04:56:12;;;;;;;5.10;2.28;;;;;;;;;;5078116;28;20538;-62
2023/04/20 04:58:38;;;;;;;3.25;2.00;;;;;;;;;;5054599;28;20107;-61
2023/04/20 05:01:05;;;;;;;4.90;2.17;;;;;;;;;;5060048;28;20499;-62
2023/04/20 05:03:31;;;;;;;6.70;2.05;;;;;;;;;;5063564;28;20056;-62
2023/04/20 05:05:58;;;;;;;8.23;2.47;;;;;;;;;;5061965;28;20134;-62
2023/04/20 05:08:25;;;;;;;4.85;2.17;;;;;;;;;;5061120;28;20147;-61
2023/04/20 05:10:51;;;;;;;3.03;2.20;;;;;;;;;;5069671;28;20503;-60
2023/04/20 05:13:17;;;;;;;7.88;2.95;;;;;;;;;;5068738;28;20140;-61
2023/04/20 05:15:44;;;;;;;3.58;1.95;;;;;;;;;;5060651;28;20056;-62
2023/04/20 05:18:10;;;;;;;3.70;2.30;;;;;;;;;;5061822;28;20049;-62
2023/04/20 05:20:37;;;;;;;5.57;2.90;;;;;;;;;;5057292;28;20053;-62
2023/04/20 05:23:03;;;;;;;5.32;2.72;;;;;;;;;;5055580;28;20680;-62
2023/04/20 05:25:31;;;;;;;4.88;1.92;;;;;;;;;;5060256;28;20053;-34
2023/04/20 05:27:58;;;;;;;3.35;2.00;;;;;;;;;;5065207;28;20144;-64
2023/04/20 05:30:24;;;;;;;3.28;2.47;;;;;;;;;;5068933;28;20853;-64
2023/04/20 05:32:50;;;;;;;7.03;2.25;;;;;;;;;;5076392;28;20144;-64
2023/04/20 05:35:18;;;;;;;8.98;2.53;;;;;;;;;;5070340;28;20064;-65
2023/04/20 05:37:46;;;;;;;3.45;2.05;;;;;;;;;;5077029;28;20053;-63
2023/04/20 05:40:14;;;;;;;7.82;2.33;;;;;;;;;;5061835;28;20052;-62
2023/04/20 05:42:40;;;;;;;5.57;1.92;;;;;;;;;;5066379;28;20057;-61
2023/04/20 05:45:07;;;;;;;6.50;2.25;;;;;;;;;;5068557;28;20053;-63
2023/04/20 05:47:33;;;;;;;6.55;2.90;;;;;;;;;;5070775;28;20063;-61
2023/04/20 05:50:00;;;;;;;7.43;2.72;;;;;;;;;;5068819;28;20049;-62
2023/04/20 05:52:26;;;;;;;4.43;2.15;;;;;;;;;;5083939;28;20487;-62
2023/04/20 05:54:53;;;;;;;5.45;2.72;;;;;;;;;;5061434;28;20581;-61
2023/04/20 05:57:20;;;;;;;6.43;2.95;;;;;;;;;;5070693;28;20486;-62
2023/04/20 05:59:47;;;;;;;4.00;2.65;;;;;;;;;;5060769;28;20530;-62
2023/04/20 06:02:13;;;;;;;7.10;2.40;;;;;;;;;;5058117;28;20088;-62
2023/04/20 06:04:41;;;;;;;3.70;2.25;;;;;;;;;;5045180;28;20057;-62
2023/04/20 06:07:07;;;;;;;5.47;2.42;;;;;;;;;;5075151;28;20057;-61
2023/04/20 06:09:34;;;;;;;5.32;2.10;;;;;;;;;;5066844;28;20598;-62
2023/04/20 06:12:01;;;;;;;5.68;2.47;;;;;;;;;;5064785;28;20519;-62
2023/04/20 06:14:27;;;;;;;4.53;2.20;;;;;;;;;;5065336;28;20420;-61
2023/04/20 06:16:54;;;;;;;4.25;2.22;;;;;;;;;;5063990;28;20531;-62
2023/04/20 06:19:20;;;;;;;5.97;1.90;;;;;;;;;;5062304;28;20615;-62
2023/04/20 06:21:47;;;;;;;4.90;2.50;;;;;;;;;;5054381;28;20614;-62
2023/04/20 06:24:13;;;;;;;4.45;2.20;;;;;;;;;;5054195;28;20068;-62
2023/04/20 06:26:40;;;;;;;5.43;2.33;;;;;;;;;;5070684;28;20048;-62
2023/04/20 06:29:06;;;;;;;5.70;2.33;;;;;;;;;;5062841;28;20056;-62
2023/04/20 06:31:32;;;;;;;4.30;2.70;;;;;;;;;;5062530;28;20057;-62
2023/04/20 06:33:59;;;;;;;3.83;2.50;;;;;;;;;;5063223;28;20270;-61
2023/04/20 06:36:26;;;;;;;6.22;2.75;;;;;;;;;;5065036;28;20045;-62
2023/04/20 06:38:53;;;;;;;4.15;2.58;;;;;;;;;;5062739;28;20057;-62
2023/04/20 06:41:20;;;;;;;3.08;2.25;;;;;;;;;;5062813;28;20053;-61
2023/04/20 06:43:46;;;;;;;5.60;2.63;;;;;;;;;;5063193;28;20115;-56
2023/04/20 06:46:12;;;;;;;6.68;3.03;;;;;;;;;;5082105;28;20122;-61
2023/04/20 06:48:39;;;;;;;5.93;2.55;;;;;;;;;;5068087;28;20068;-61
2023/04/20 06:51:05;;;;;;;5.25;2.67;;;;;;;;;;5063248;28;20515;-62
2023/04/20 06:53:32;;;;;;;4.45;2.58;;;;;;;;;;5064272;28;20144;-61
2023/04/20 06:55:58;;;;;;;6.07;3.45;;;;;;;;;;5047492;28;20088;-61
2023/04/20 06:58:25;;;;;;;5.30;2.60;;;;;;;;;;5057952;28;20124;-60
2023/04/20 07:00:52;;;;;;;5.03;2.60;;;;;;;;;;5052322;28;20057;-60
2023/04/20 07:03:18;;;;;;;7.00;3.25;;;;;;;;;;5063298;28;20556;-61
2023/04/20 07:05:45;;;;;;;6.70;3.90;;;;;;;;;;5061926;28;20110;-62
2023/04/20 07:08:14;;;;;;;5.95;3.47;;;;;;;;;;5058461;28;20052;-62
2023/04/20 07:10:40;;;;;;;4.63;3.60;;;;;;;;;;5052061;28;20138;-61
2023/04/20 07:13:07;;;;;;;6.47;3.55;;;;;;;;;;5060149;28;20049;-61
2023/04/20 07:15:33;;;;;;;5.22;2.88;;;;;;;;;;5063679;28;20056;-61
2023/04/20 07:17:59;;;;;;;6.22;3.55;;;;;;;;;;5062462;28;20089;-62
2023/04/20 07:20:26;;;;;;;9.20;4.15;;;;;;;;;;5066052;28;20060;-62
2023/04/20 07:22:52;;;;;;;4.28;3.17;;;;;;;;;;5061773;28;20076;-61
2023/04/20 07:25:19;;;;;;;4.78;2.88;;;;;;;;;;5062611;28;20048;-61
2023/04/20 07:27:45;;;;;;;7.25;3.03;;;;;;;;;;5061829;28;20057;-60
2023/04/20 07:30:12;;;;;;;6.47;3.13;;;;;;;;;;5061863;28;20074;-61
2023/04/20 07:32:39;;;;;;;5.72;3.15;;;;;;;;;;5062895;28;20060;-61
2023/04/20 07:35:06;;;;;;;3.83;3.15;;;;;;;;;;5067545;28;20060;-61
2023/04/20 07:37:32;;;;;;;5.35;3.33;;;;;;;;;;5062249;28;20496;-61
2023/04/20 07:39:59;;;;;;;5.38;3.22;;;;;;;;;;5060668;28;20049;-61
2023/04/20 07:42:25;;;;;;;9.98;3.38;;;;;;;;;;5066278;28;20053;-61
2023/04/20 07:44:52;;;;;;;4.90;2.75;;;;;;;;;;5067531;28;20733;-61
2023/04/20 07:47:18;;;;;;;5.03;3.03;;;;;;;;;;5069596;28;20195;-60
2023/04/20 07:49:45;;;;;;;5.05;3.00;;;;;;;;;;5070027;28;20434;-61
2023/04/20 07:52:11;;;;;;;6.15;3.40;;;;;;;;;;5060853;28;20057;-61
2023/04/20 07:54:43;;;;;;;5.47;2.90;;;;;;;;;;5068855;28;20055;-61
2023/04/20 07:57:10;;;;;;;6.75;3.42;;;;;;;;;;5061831;28;20057;-62
2023/04/20 07:59:36;;;;;;;8.35;2.47;;;;;;;;;;5067749;28;20059;-61
2023/04/20 08:02:03;;;;;;;4.85;3.20;;;;;;;;;;5061058;28;20072;-60
2023/04/20 08:04:29;;;;;;;4.88;3.05;;;;;;;;;;5063792;28;20075;-61
2023/04/20 08:06:56;;;;;;;3.28;2.83;;;;;;;;;;5062422;28;20357;-62
2023/04/20 08:09:24;;;;;;;5.18;3.30;;;;;;;;;;5064516;28;20099;-62
2023/04/20 08:11:51;;;;;;;4.32;3.30;;;;;;;;;;5060382;28;20104;-61
2023/04/20 08:14:17;;;;;;;5.88;3.40;;;;;;;;;;5061571;28;20068;-61
2023/04/20 08:16:44;;;;;;;5.25;2.95;;;;;;;;;;5062721;28;20064;-61
2023/04/20 08:19:11;;;;;;;5.38;3.25;;;;;;;;;;5069185;28;20626;-64
2023/04/20 08:21:38;;;;;;;4.47;3.08;;;;;;;;;;5060788;28;20118;-61
2023/04/20 08:24:05;;;;;;;5.95;3.42;;;;;;;;;;5060892;28;20049;-62
2023/04/20 08:26:32;;;;;;;3.28;2.78;;;;;;;;;;5063454;28;20057;-61
2023/04/20 08:28:59;;;;;;;6.13;3.53;;;;;;;;;;5061571;28;20099;-62
2023/04/20 08:31:26;;;;;;;8.57;3.15;;;;;;;;;;5078310;28;20554;-61
2023/04/20 08:33:53;;;;;;;5.95;3.40;;;;;;;;;;5061625;28;20140;-61
2023/04/20 08:36:19;;;;;;;3.97;3.00;;;;;;;;;;5061958;28;20393;-62
2023/04/20 08:38:52;;;;;;;7.07;2.92;;;;;;;;;;5060625;28;20562;-62
2023/04/20 08:41:18;;;;;;;6.68;3.35;;;;;;;;;;5061644;28;20052;-62
2023/04/20 08:43:45;;;;;;;7.28;3.47;;;;;;;;;;5061434;28;20141;-61
2023/04/20 08:46:12;;;;;;;4.82;3.30;;;;;;;;;;5061149;28;20126;-62
2023/04/20 08:48:40;;;;;;;8.40;3.50;;;;;;;;;;5056932;28;20053;-61
2023/04/20 08:51:07;;;;;;;7.43;3.47;;;;;;;;;;5060627;28;20051;-61
2023/04/20 08:53:33;;;;;;;5.25;3.13;;;;;;;;;;5055066;28;20056;-61
2023/04/20 08:56:00;;;;;;;5.97;3.63;;;;;;;;;;5059169;28;20053;-61
2023/04/20 08:58:33;;;;;;;5.88;3.55;;;;;;;;;;5061941;28;20628;-62
2023/04/20 09:01:00;;;;;;;12.23;4.22;;;;;;;;;;5063260;28;20147;-61
2023/04/20 09:03:35;;;;;;;6.30;3.80;;;;;;;;;;5061285;28;20049;-61
2023/04/20 09:06:03;;;;;;;6.13;3.97;;;;;;;;;;5064330;28;20762;-62
2023/04/20 09:08:33;;;;;;;7.88;4.97;;;;;;;;;;5061639;28;20045;-61
2023/04/20 09:10:59;;;;;;;7.55;3.90;;;;;;;;;;5061574;28;20433;-62
2023/04/20 09:13:26;;;;;;;6.40;3.78;;;;;;;;;;5059156;28;20255;-61
2023/04/20 09:15:52;;;;;;;4.85;4.13;;;;;;;;;;5056459;28;20614;-62
2023/04/20 09:18:19;;;;;;;7.28;3.95;;;;;;;;;;5064049;28;20045;-62
2023/04/20 09:20:45;;;;;;;7.28;4.10;;;;;;;;;;5064603;28;20451;-62
2023/04/20 09:23:12;;;;;;;9.13;3.85;;;;;;;;;;5059202;28;20422;-62
2023/04/20 09:25:40;;;;;;;6.78;3.60;;;;;;;;;;5059901;28;20053;-61
2023/04/20 09:28:06;;;;;;;7.32;3.88;;;;;;;;;;5061432;28;20140;-62
2023/04/20 09:30:39;;;;;;;9.93;3.75;;;;;;;;;;5063492;28;20060;-62
2023/04/20 09:33:07;;;;;;;6.97;3.63;;;;;;;;;;5061671;28;20103;-60
2023/04/20 09:35:33;;;;;;;5.13;3.60;;;;;;;;;;5072033;28;20044;-61
2023/04/20 09:38:00;;;;;;;5.32;3.78;;;;;;;;;;5065012;28;20048;-61
2023/04/20 09:40:27;;;;;;;5.80;4.22;;;;;;;;;;5067778;28;20512;-62
2023/04/20 09:42:57;;;;;;;6.10;4.00;;;;;;;;;;5066946;28;20052;-62
2023/04/20 09:45:24;;;;;;;4.68;3.92;;;;;;;;;;5066325;28;20060;-61
2023/04/20 09:47:51;;;;;;;7.35;3.80;;;;;;;;;;5068918;28;20311;-62
2023/04/20 09:50:19;;;;;;;8.45;3.97;;;;;;;;;;5059175;28;20044;-62
2023/04/20 09:52:58;;;;;;;5.00;3.63;;;;;;;;;;5064454;28;20057;-62
2023/04/20 09:55:25;;;;;;;5.13;3.60;;;;;;;;;;5057183;28;20057;-62
2023/04/20 09:57:53;;;;;;;6.68;4.13;;;;;;;;;;5069136;28;20052;-62
2023/04/20 10:00:19;;;;;;;7.82;4.40;;;;;;;;;;5060093;28;20144;-62
2023/04/20 10:02:47;;;;;;;8.45;3.72;;;;;;;;;;5053208;28;20084;-61
2023/04/20 10:05:15;;;;;;;6.18;4.03;;;;;;;;;;5058910;28;20065;-62
2023/04/20 10:07:42;;;;;;;5.35;3.70;;;;;;;;;;5059323;28;20483;-63
2023/04/20 10:10:10;;;;;;;8.38;4.57;;;;;;;;;;5051904;28;20102;-62
2023/04/20 10:12:49;;;;;;;7.03;4.65;;;;;;;;;;5056215;28;22040;-62
2023/04/20 10:15:16;;;;;;;7.00;4.60;;;;;;;;;;5057929;28;20482;-62
2023/04/20 10:17:42;;;;;;;6.32;4.72;;;;;;;;;;5046299;28;20228;-62
2023/04/20 10:20:22;;;;;;;10.23;4.53;;;;;;;;;;5056421;28;20080;-62
2023/04/20 10:22:50;;;;;;;6.63;4.50;;;;;;;;;;5054306;28;20049;-62
2023/04/20 10:25:18;;;;;;;10.77;4.45;;;;;;;;;;5060530;28;20777;-61
2023/04/20 10:27:51;;;;;;;7.13;4.68;;;;;;;;;;5047530;28;20057;-61
2023/04/20 10:30:18;;;;;;;8.02;4.28;;;;;;;;;;5039745;28;20535;-61
2023/04/20 10:32:44;;;;;;;7.35;4.63;;;;;;;;;;5054327;28;20111;-62
2023/04/20 10:35:12;;;;;;;8.10;5.10;;;;;;;;;;5057086;28;20049;-62
2023/04/20 10:37:49;;;;;;;7.05;4.30;;;;;;;;;;5063511;28;20099;-62
2023/04/20 10:40:16;;;;;;;6.00;4.28;;;;;;;;;;5061619;28;20052;-62
2023/04/20 10:42:42;;;;;;;8.18;4.18;;;;;;;;;;5061948;28;20519;-62
2023/04/20 10:45:10;;;;;;;11.30;4.75;;;;;;;;;;5062382;28;20053;-61
2023/04/20 10:47:39;;;;;;;6.45;4.30;;;;;;;;;;5059857;28;20546;-61
2023/04/20 10:50:10;;;;;;;6.60;4.00;;;;;;;;;;5061071;28;20492;-60
2023/04/20 10:52:38;;;;;;;6.97;4.18;;;;;;;;;;5054895;28;20060;-61
2023/04/20 10:55:08;;;;;;;8.00;4.32;;;;;;;;;;5072043;28;20043;-61
2023/04/20 10:57:34;;;;;;;8.30;4.18;;;;;;;;;;5059994;28;20053;-61
2023/04/20 11:00:12;;;;;;;6.75;3.78;;;;;;;;;;5059774;28;20056;-61
2023/04/20 11:02:44;;;;;;;5.00;3.88;;;;;;;;;;5054984;28;20385;-61
2023/04/20 11:05:11;;;;;;;5.05;3.78;;;;;;;;;;5059005;28;20178;-61
2023/04/20 11:07:45;;;;;;;6.03;4.32;;;;;;;;;;5056414;28;20052;-61
2023/04/20 11:10:12;;;;;;;5.25;4.10;;;;;;;;;;5063151;28;20049;-61
2023/04/20 11:12:38;;;;;;;4.85;3.83;;;;;;;;;;5067203;28;20052;-62
2023/04/20 11:15:05;;;;;;;5.25;3.92;;;;;;;;;;5066226;28;20061;-61
2023/04/20 11:17:31;;;;;;;4.55;3.72;;;;;;;;;;5054862;28;20549;-61
2023/04/20 11:20:12;;;;;;;5.38;4.10;;;;;;;;;;5069383;28;20057;-62
2023/04/20 11:22:39;;;;;;;6.85;4.22;;;;;;;;;;5071423;28;20056;-61
2023/04/20 11:25:06;;;;;;;5.38;3.42;;;;;;;;;;5060562;28;20467;-61
2023/04/20 11:27:33;;;;;;;4.65;2.95;;;;;;;;;;5063287;28;20214;-62
2023/04/20 11:30:04;;;;;;;5.20;2.83;;;;;;;;;;5075151;28;20084;-62
2023/04/20 11:32:31;;;;;;;4.70;3.08;;;;;;;;;;5062597;28;20057;-62
2023/04/20 11:35:00;;;;;;;3.53;2.97;;;;;;;;;;5066182;28;20158;-62
2023/04/20 11:37:32;;;;;;;3.75;3.35;;;;;;;;;;5069274;28;20120;-61
2023/04/20 11:40:00;;;;;;;4.65;3.20;;;;;;;;;;5076506;28;20586;-61
2023/04/20 11:42:27;;;;;;;4.18;3.10;;;;;;;;;;5062747;28;20056;-61
2023/04/20 11:44:54;;;;;;;3.33;2.95;;;;;;;;;;5063867;28;20270;-62
2023/04/20 11:47:21;;;;;;;4.90;3.00;;;;;;;;;;5069524;28;20060;-61
2023/04/20 11:49:47;;;;;;;3.42;2.78;;;;;;;;;;5073484;28;20049;-62
2023/04/20 11:52:14;;;;;;;6.20;3.03;;;;;;;;;;5066091;28;20530;-61
2023/04/20 11:54:40;;;;;;;3.40;2.75;;;;;;;;;;5072331;28;20045;-61
2023/04/20 11:57:06;;;;;;;4.93;2.92;;;;;;;;;;5068516;28;20049;-61
2023/04/20 11:59:33;;;;;;;3.70;3.08;;;;;;;;;;5062459;28;20084;-62
2023/04/20 12:02:03;;;;;;;4.50;3.63;;;;;;;;;;5062006;28;20056;-62
2023/04/20 12:04:30;;;;;;;5.85;3.70;;;;;;;;;;5076892;28;20076;-62
2023/04/20 12:07:01;;;;;;;4.40;3.30;;;;;;;;;;5063795;28;20060;-62
2023/04/20 12:09:27;;;;;;;5.60;3.55;;;;;;;;;;5079303;28;20671;-62
2023/04/20 12:11:54;;;;;;;5.63;3.58;;;;;;;;;;5088058;28;20145;-62
2023/04/20 12:14:20;;;;;;;7.93;3.17;;;;;;;;;;5062992;28;20412;-61
2023/04/20 12:16:47;;;;;;;4.15;3.30;;;;;;;;;;5072465;28;20520;-62
2023/04/20 12:19:13;;;;;;;4.47;3.08;;;;;;;;;;5062240;28;20064;-61
2023/04/20 12:21:39;;;;;;;4.70;3.60;;;;;;;;;;5063664;28;20148;-61
2023/04/20 12:24:06;;;;;;;10.85;3.10;;;;;;;;;;5062838;28;20056;-61
2023/04/20 12:26:34;;;;;;;4.60;3.22;;;;;;;;;;5056515;28;20610;-61
2023/04/20 12:29:04;;;;;;;3.60;2.83;;;;;;;;;;5051785;28;20056;-62
2023/04/20 12:31:30;;;;;;;10.05;4.20;;;;;;;;;;5066964;28;20112;-62
2023/04/20 12:33:57;;;;;;;3.75;2.72;;;;;;;;;;5058983;28;20060;-61
2023/04/20 12:36:23;;;;;;;4.05;3.25;;;;;;;;;;5069243;28;20060;-62
2023/04/20 12:38:51;;;;;;;4.15;3.25;;;;;;;;;;5062277;28;20076;-61
2023/04/20 12:41:17;;;;;;;3.72;3.10;;;;;;;;;;5061960;28;20203;-60
2023/04/20 12:43:43;;;;;;;6.85;3.35;;;;;;;;;;5064739;28;20179;-61
2023/04/20 12:46:10;;;;;;;5.03;3.30;;;;;;;;;;5051411;28;20447;-62
2023/04/20 12:48:36;;;;;;;4.25;3.17;;;;;;;;;;5075134;28;20051;-61
2023/04/20 12:51:03;;;;;;;4.10;3.60;;;;;;;;;;5066056;28;20103;-62
2023/04/20 12:53:32;;;;;;;4.63;3.45;;;;;;;;;;5062623;28;20079;-62
2023/04/20 12:55:59;;;;;;;13.40;4.32;;;;;;;;;;5062557;28;20057;-62
2023/04/20 12:58:27;;;;;;;8.32;3.58;;;;;;;;;;5077491;28;20063;-62
2023/04/20 13:00:56;;;;;;;4.78;3.38;;;;;;;;;;5064670;28;20079;-61
2023/04/20 13:03:23;;;;;;;5.13;3.53;;;;;;;;;;5069792;28;20057;-60
2023/04/20 13:05:50;;;;;;;5.15;3.63;;;;;;;;;;5073516;28;20052;-61
2023/04/20 13:08:18;;;;;;;5.63;3.28;;;;;;;;;;5059154;28;20057;-61
2023/04/20 13:10:44;;;;;;;4.93;3.83;;;;;;;;;;5049110;28;20050;-61
2023/04/20 13:13:11;;;;;;;6.65;3.90;;;;;;;;;;5050455;28;20056;-61
2023/04/20 13:15:37;;;;;;;5.18;3.72;;;;;;;;;;5060823;28;20053;-60
2023/04/20 13:18:05;;;;;;;5.28;3.58;;;;;;;;;;5066746;28;20053;-61
2023/04/20 13:20:31;;;;;;;4.68;3.72;;;;;;;;;;5055618;28;20506;-62
2023/04/20 13:22:59;;;;;;;5.95;3.70;;;;;;;;;;5059968;28;20482;-62
2023/04/20 13:25:27;;;;;;;4.80;3.45;;;;;;;;;;5076338;28;20143;-62
2023/04/20 13:27:54;;;;;;;5.50;3.65;;;;;;;;;;5051070;28;20169;-62
2023/04/20 13:30:21;;;;;;;4.90;3.90;;;;;;;;;;5055402;28;20076;-62
2023/04/20 13:32:49;;;;;;;10.27;3.67;;;;;;;;;;5068680;28;20060;-61
2023/04/20 13:35:16;;;;;;;7.45;3.72;;;;;;;;;;5061488;28;20056;-62
2023/04/20 13:37:43;;;;;;;5.55;3.63;;;;;;;;;;5069358;28;20056;-62
2023/04/20 13:40:10;;;;;;;6.38;3.83;;;;;;;;;;5067012;28;20096;-61
2023/04/20 13:42:36;;;;;;;6.82;3.97;;;;;;;;;;5062499;28;20581;-61
2023/04/20 13:45:04;;;;;;;8.85;4.03;;;;;;;;;;5056214;28;20143;-63
2023/04/20 13:47:30;;;;;;;4.90;3.88;;;;;;;;;;5061342;28;20133;-61
2023/04/20 13:49:57;;;;;;;5.97;4.18;;;;;;;;;;5059786;28;20354;-61
2023/04/20 13:52:24;;;;;;;6.85;3.75;;;;;;;;;;5067288;28;20049;-61
2023/04/20 13:54:50;;;;;;;8.63;4.50;;;;;;;;;;5056946;28;20530;-61
2023/04/20 13:57:16;;;;;;;5.20;3.60;;;;;;;;;;5061867;28;20462;-64
2023/04/20 13:59:43;;;;;;;4.55;3.55;;;;;;;;;;5055708;28;20096;-62
2023/04/20 14:02:09;;;;;;;4.70;3.50;;;;;;;;;;5050126;28;20175;-62
2023/04/20 14:04:36;;;;;;;4.30;3.45;;;;;;;;;;5049861;28;20053;-61
2023/04/20 14:07:02;;;;;;;6.20;3.70;;;;;;;;;;5047514;28;20538;-61
2023/04/20 14:09:32;;;;;;;6.10;3.70;;;;;;;;;;5064891;28;20057;-62
2023/04/20 14:12:00;;;;;;;3.90;3.13;;;;;;;;;;5072172;28;20496;-61
2023/04/20 14:14:27;;;;;;;4.15;3.40;;;;;;;;;;5063012;28;20165;-62
2023/04/20 14:16:53;;;;;;;6.72;3.72;;;;;;;;;;5071434;28;20056;-62
2023/04/20 14:19:19;;;;;;;5.80;3.72;;;;;;;;;;5073346;28;20148;-61
2023/04/20 14:21:46;;;;;;;4.00;3.53;;;;;;;;;;5063548;28;20067;-61
2023/04/20 14:24:12;;;;;;;5.00;3.90;;;;;;;;;;5066402;28;20131;-62
2023/04/20 14:26:39;;;;;;;4.47;4.05;;;;;;;;;;5057641;28;20073;-61
2023/04/20 14:29:05;;;;;;;4.47;3.70;;;;;;;;;;5065626;28;20049;-61
2023/04/20 14:31:33;;;;;;;7.10;4.18;;;;;;;;;;5064706;28;20514;-61
2023/04/20 14:34:00;;;;;;;5.22;4.10;;;;;;;;;;5064398;28;20734;-61
2023/04/20 14:36:27;;;;;;;5.68;4.22;;;;;;;;;;5064030;28;20140;-62
2023/04/20 14:38:54;;;;;;;5.50;4.40;;;;;;;;;;5065098;28;20061;-60
2023/04/20 14:41:21;;;;;;;4.85;4.18;;;;;;;;;;5068973;28;20048;-61